createdAt,value
2019-05-11T00:01:11.125Z,9.81
2019-05-11T00:03:39.539Z,9.76
2019-05-11T00:06:08.130Z,9.62
2019-05-11T00:08:36.631Z,9.58
2019-05-11T00:11:05.083Z,9.63
2019-05-11T00:13:33.511Z,9.58
2019-05-11T00:16:01.997Z,9.49
2019-05-11T00:18:30.431Z,9.39
2019-05-11T00:20:58.853Z,9.35
2019-05-11T00:23:27.309Z,9.34
2019-05-11T00:25:55.740Z,9.42
2019-05-11T00:28:24.180Z,9.44
2019-05-11T00:30:52.602Z,9.46
2019-05-11T00:33:21.022Z,9.50
2019-05-11T00:35:49.471Z,9.49
2019-05-11T00:38:17.892Z,9.46
2019-05-11T00:40:46.332Z,9.43
2019-05-11T00:43:14.761Z,9.38
2019-05-11T00:45:43.187Z,9.33
2019-05-11T00:48:11.648Z,9.25
2019-05-11T00:50:40.274Z,9.13
2019-05-11T00:53:08.747Z,8.94
2019-05-11T00:55:37.249Z,8.92
2019-05-11T00:58:05.741Z,8.95
2019-05-11T01:00:34.183Z,8.93
2019-05-11T01:03:02.579Z,8.98
2019-05-11T01:05:31.068Z,9.04
2019-05-11T01:07:59.497Z,8.94
2019-05-11T01:10:40.998Z,8.92
2019-05-11T01:12:58.103Z,8.89
2019-05-11T01:15:26.523Z,8.85
2019-05-11T01:17:54.947Z,8.79
2019-05-11T01:20:23.386Z,8.75
2019-05-11T01:22:51.807Z,8.74
2019-05-11T01:25:21.107Z,8.73
2019-05-11T01:27:49.561Z,8.81
2019-05-11T01:30:17.966Z,8.88
2019-05-11T01:32:46.397Z,8.94
2019-05-11T01:35:15.151Z,8.96
2019-05-11T01:37:43.573Z,8.96
2019-05-11T01:40:12.136Z,9.05
2019-05-11T01:42:40.548Z,9.08
2019-05-11T01:45:09.303Z,9.09
2019-05-11T01:47:37.721Z,9.11
2019-05-11T01:50:06.700Z,9.07
2019-05-11T01:52:35.109Z,9.11
2019-05-11T01:55:03.586Z,9.07
2019-05-11T01:57:32.037Z,9.08
2019-05-11T02:00:00.445Z,9.09
2019-05-11T02:02:28.886Z,9.13
2019-05-11T02:05:15.196Z,9.14
2019-05-11T02:07:43.623Z,9.16
2019-05-11T02:10:12.285Z,9.20
2019-05-11T02:12:40.721Z,9.13
2019-05-11T02:15:09.612Z,9.08
2019-05-11T02:17:38.082Z,9.04
2019-05-11T02:20:06.964Z,8.95
2019-05-11T02:22:35.407Z,8.95
2019-05-11T02:25:04.728Z,8.94
2019-05-11T02:27:33.148Z,8.93
2019-05-11T02:30:01.638Z,8.94
2019-05-11T02:32:30.114Z,8.94
2019-05-11T02:34:58.544Z,8.93
2019-05-11T02:37:26.975Z,8.93
2019-05-11T02:39:55.396Z,8.92
2019-05-11T02:42:23.843Z,8.94
2019-05-11T02:44:52.266Z,8.95
2019-05-11T02:47:20.680Z,9.00
2019-05-11T02:49:49.113Z,9.03
2019-05-11T02:52:18.078Z,9.05
2019-05-11T02:54:48.251Z,9.03
2019-05-11T02:57:16.709Z,8.98
2019-05-11T02:59:45.116Z,8.95
2019-05-11T03:02:13.575Z,8.96
2019-05-11T03:04:42.032Z,9.01
2019-05-11T03:07:10.454Z,9.05
2019-05-11T03:09:38.919Z,9.04
2019-05-11T03:12:07.334Z,9.06
2019-05-11T03:14:35.745Z,9.14
2019-05-11T03:17:18.097Z,9.12
2019-05-11T03:19:46.507Z,9.12
2019-05-11T03:22:14.958Z,9.10
2019-05-11T03:24:43.409Z,9.06
2019-05-11T03:27:11.877Z,9.05
2019-05-11T03:29:40.285Z,9.04
2019-05-11T03:32:08.701Z,8.99
2019-05-11T03:34:37.121Z,9.00
2019-05-11T03:37:05.563Z,8.98
2019-05-11T03:39:33.973Z,8.86
2019-05-11T03:42:13.884Z,8.88
2019-05-11T03:44:32.578Z,8.93
2019-05-11T03:47:01.047Z,8.97
2019-05-11T03:49:29.530Z,8.96
2019-05-11T03:51:57.955Z,8.94
2019-05-11T03:54:26.368Z,8.86
2019-05-11T03:56:54.827Z,8.91
2019-05-11T03:59:23.243Z,8.92
2019-05-11T04:01:51.675Z,8.94
2019-05-11T04:04:20.145Z,8.92
2019-05-11T04:06:48.561Z,8.96
2019-05-11T04:09:17.009Z,8.91
2019-05-11T04:11:45.496Z,8.87
2019-05-11T04:14:13.908Z,8.80
2019-05-11T04:16:42.351Z,8.81
2019-05-11T04:19:10.761Z,8.78
2019-05-11T04:21:39.194Z,8.79
2019-05-11T04:24:07.641Z,8.83
2019-05-11T04:26:36.053Z,8.82
2019-05-11T04:29:04.491Z,8.82
2019-05-11T04:31:32.914Z,8.84
2019-05-11T04:34:01.324Z,8.83
2019-05-11T04:36:29.757Z,8.84
2019-05-11T04:38:58.202Z,8.88
2019-05-11T04:41:26.622Z,8.90
2019-05-11T04:43:55.083Z,8.91
2019-05-11T04:46:23.504Z,8.95
2019-05-11T04:48:51.954Z,8.96
2019-05-11T04:51:20.390Z,9.03
2019-05-11T04:53:48.884Z,8.99
2019-05-11T04:56:17.321Z,9.06
2019-05-11T04:58:45.926Z,9.08
2019-05-11T05:01:14.434Z,9.09
2019-05-11T05:03:47.359Z,9.05
2019-05-11T05:06:24.501Z,9.10
2019-05-11T05:08:43.337Z,9.11
2019-05-11T05:11:11.757Z,9.10
2019-05-11T05:13:40.181Z,9.10
2019-05-11T05:16:08.623Z,9.11
2019-05-11T05:18:37.055Z,9.13
2019-05-11T05:21:05.482Z,9.18
2019-05-11T05:23:33.932Z,9.23
2019-05-11T05:26:02.380Z,9.29
2019-05-11T05:28:30.794Z,9.29
2019-05-11T05:30:59.216Z,9.27
2019-05-11T05:33:27.649Z,9.23
2019-05-11T05:35:56.083Z,9.27
2019-05-11T05:38:24.488Z,9.18
2019-05-11T05:40:53.040Z,9.23
2019-05-11T05:43:28.088Z,9.24
2019-05-11T05:45:51.730Z,9.27
2019-05-11T05:48:20.401Z,9.22
2019-05-11T05:50:56.888Z,9.33
2019-05-11T05:53:34.541Z,9.38
2019-05-11T05:56:02.989Z,9.37
2019-05-11T05:58:31.495Z,9.22
2019-05-11T06:00:59.967Z,9.28
2019-05-11T06:03:28.406Z,9.11
2019-05-11T06:05:56.814Z,9.15
2019-05-11T06:08:25.251Z,9.19
2019-05-11T06:10:53.677Z,9.14
2019-05-11T06:13:22.088Z,9.13
2019-05-11T06:15:50.694Z,9.13
2019-05-11T06:18:19.110Z,9.19
2019-05-11T06:20:47.555Z,9.32
2019-05-11T06:23:16.004Z,9.22
2019-05-11T06:25:44.453Z,9.16
2019-05-11T06:28:12.865Z,9.12
2019-05-11T06:30:41.792Z,9.22
2019-05-11T06:33:10.205Z,9.07
2019-05-11T06:35:38.692Z,9.18
2019-05-11T06:38:07.118Z,9.21
2019-05-11T06:40:36.147Z,9.15
2019-05-11T06:43:04.959Z,9.26
2019-05-11T06:45:33.389Z,9.28
2019-05-11T06:48:01.886Z,9.41
2019-05-11T06:50:30.319Z,9.49
2019-05-11T06:52:58.731Z,9.30
2019-05-11T06:55:27.841Z,9.33
2019-05-11T06:57:56.279Z,9.28
2019-05-11T07:00:24.957Z,9.32
2019-05-11T07:02:53.622Z,9.38
2019-05-11T07:05:22.049Z,9.42
2019-05-11T07:07:50.495Z,9.36
2019-05-11T07:10:18.978Z,9.36
2019-05-11T07:12:47.414Z,9.39
2019-05-11T07:15:16.364Z,9.52
2019-05-11T07:17:44.796Z,9.56
2019-05-11T07:20:13.361Z,9.47
2019-05-11T07:22:41.811Z,9.37
2019-05-11T07:25:10.613Z,9.44
2019-05-11T07:27:39.094Z,9.54
2019-05-11T07:30:09.353Z,9.53
2019-05-11T07:32:38.336Z,9.58
2019-05-11T07:35:08.425Z,9.73
2019-05-11T07:37:38.507Z,9.62
2019-05-11T07:40:08.344Z,9.81
2019-05-11T07:42:38.039Z,9.75
2019-05-11T07:45:10.732Z,9.81
2019-05-11T07:47:39.184Z,9.88
2019-05-11T07:50:08.482Z,9.70
2019-05-11T07:52:37.915Z,9.74
2019-05-11T07:55:08.508Z,9.77
2019-05-11T07:57:39.023Z,9.74
2019-05-11T08:00:08.209Z,9.73
2019-05-11T08:02:38.668Z,9.74
2019-05-11T08:05:08.695Z,9.87
2019-05-11T08:07:38.032Z,9.88
2019-05-11T08:10:08.708Z,9.60
2019-05-11T08:12:39.239Z,9.81
2019-05-11T08:15:12.465Z,9.71
2019-05-11T08:17:38.265Z,9.73
2019-05-11T08:20:08.392Z,9.62
2019-05-11T08:22:37.825Z,9.76
2019-05-11T08:25:09.204Z,9.88
2019-05-11T08:27:38.041Z,9.85
2019-05-11T08:30:09.553Z,9.66
2019-05-11T08:32:38.675Z,9.80
2019-05-11T08:35:09.421Z,9.70
2019-05-11T08:37:38.811Z,9.76
2019-05-11T08:40:08.096Z,9.94
2019-05-11T08:42:37.868Z,10.01
2019-05-11T08:45:19.399Z,9.93
2019-05-11T08:47:37.863Z,10.15
2019-05-11T08:50:08.207Z,10.19
2019-05-11T08:52:38.699Z,10.16
2019-05-11T08:55:08.390Z,10.01
2019-05-11T08:57:38.730Z,9.80
2019-05-11T09:00:11.198Z,9.77
2019-05-11T09:02:39.623Z,9.82
2019-05-11T09:05:08.422Z,9.88
2019-05-11T09:07:38.382Z,9.79
2019-05-11T09:10:08.274Z,9.77
2019-05-11T09:12:38.225Z,9.80
2019-05-11T09:15:08.766Z,9.87
2019-05-11T09:17:38.184Z,9.99
2019-05-11T09:20:08.733Z,9.89
2019-05-11T09:22:38.237Z,9.66
2019-05-11T09:25:08.835Z,9.86
2019-05-11T09:27:37.876Z,9.94
2019-05-11T09:30:08.439Z,9.89
2019-05-11T09:32:38.439Z,9.86
2019-05-11T09:35:09.721Z,9.98
2019-05-11T09:37:38.254Z,9.68
2019-05-11T09:40:07.949Z,9.70
2019-05-11T09:42:38.893Z,9.54
2019-05-11T09:45:08.234Z,9.55
2019-05-11T09:47:38.638Z,9.58
2019-05-11T09:50:08.806Z,9.75
2019-05-11T09:52:38.494Z,9.59
2019-05-11T09:55:09.074Z,9.37
2019-05-11T09:57:38.291Z,9.49
2019-05-11T10:00:08.811Z,9.56
2019-05-11T10:02:38.478Z,9.53
2019-05-11T10:05:08.468Z,9.45
2019-05-11T10:07:38.012Z,9.22
2019-05-11T10:10:09.148Z,9.37
2019-05-11T10:12:38.158Z,9.50
2019-05-11T10:15:08.521Z,9.46
2019-05-11T10:17:38.267Z,9.53
2019-05-11T10:20:09.264Z,9.63
2019-05-11T10:22:38.599Z,9.59
2019-05-11T10:25:09.306Z,9.33
2019-05-11T10:27:38.458Z,9.30
2019-05-11T10:30:08.578Z,9.07
2019-05-11T10:32:38.031Z,9.21
2019-05-11T10:35:08.095Z,8.86
2019-05-11T10:37:39.021Z,8.99
2019-05-11T10:40:09.546Z,9.04
2019-05-11T10:42:38.033Z,8.87
2019-05-11T10:45:09.058Z,8.79
2019-05-11T10:47:38.341Z,8.79
2019-05-11T10:50:08.899Z,8.79
2019-05-11T10:52:37.995Z,8.72
2019-05-11T10:55:08.590Z,8.69
2019-05-11T10:57:38.682Z,8.73
2019-05-11T11:00:09.418Z,8.84
2019-05-11T11:02:38.506Z,9.08
2019-05-11T11:05:08.232Z,8.78
2019-05-11T11:07:38.445Z,8.73
2019-05-11T11:10:08.834Z,8.88
2019-05-11T11:12:38.458Z,8.89
2019-05-11T11:15:08.643Z,9.06
2019-05-11T11:17:38.156Z,9.13
2019-05-11T11:20:08.703Z,9.37
2019-05-11T11:22:43.507Z,9.19
2019-05-11T11:25:08.067Z,9.08
2019-05-11T11:27:38.139Z,9.30
2019-05-11T11:30:09.607Z,9.40
2019-05-11T11:32:38.383Z,9.38
2019-05-11T11:35:08.637Z,9.28
2019-05-11T11:37:38.664Z,9.20
2019-05-11T11:40:08.960Z,9.22
2019-05-11T11:42:37.825Z,9.15
2019-05-11T11:45:09.993Z,9.16
2019-05-11T11:47:38.619Z,9.15
2019-05-11T11:50:09.072Z,9.28
2019-05-11T11:52:38.401Z,9.46
2019-05-11T11:55:08.642Z,9.33
2019-05-11T11:57:38.052Z,9.57
2019-05-11T12:00:09.295Z,9.44
2019-05-11T12:02:38.918Z,9.55
2019-05-11T12:05:08.783Z,9.54
2019-05-11T12:07:38.622Z,9.68
2019-05-11T12:10:09.194Z,9.81
2019-05-11T12:12:38.631Z,9.97
2019-05-11T12:15:08.823Z,10.00
2019-05-11T12:17:38.053Z,9.81
2019-05-11T12:20:08.929Z,9.90
2019-05-11T12:22:38.616Z,9.99
2019-05-11T12:25:08.077Z,9.86
2019-05-11T12:27:38.436Z,10.01
2019-05-11T12:30:09.784Z,10.04
2019-05-11T12:32:45.321Z,10.02
2019-05-11T12:35:14.097Z,9.85
2019-05-11T12:37:42.667Z,9.80
2019-05-11T12:40:13.136Z,9.62
2019-05-11T12:42:41.560Z,9.58
2019-05-11T12:45:10.758Z,9.71
2019-05-11T12:47:39.187Z,9.87
2019-05-11T12:50:09.091Z,9.94
2019-05-11T12:52:38.290Z,10.12
2019-05-11T12:55:09.242Z,10.13
2019-05-11T12:57:38.613Z,10.04
2019-05-11T13:00:08.950Z,9.93
2019-05-11T13:02:38.790Z,9.88
2019-05-11T13:05:08.832Z,9.95
2019-05-11T13:07:39.251Z,9.94
2019-05-11T13:10:08.985Z,10.07
2019-05-11T13:12:38.599Z,9.99
2019-05-11T13:15:09.185Z,10.08
2019-05-11T13:17:40.669Z,10.04
2019-05-11T13:20:12.677Z,10.21
2019-05-11T13:22:39.897Z,10.14
2019-05-11T13:25:09.009Z,10.33
2019-05-11T13:27:38.672Z,10.32
2019-05-11T13:30:08.451Z,10.18
2019-05-11T13:32:38.487Z,10.32
2019-05-11T13:35:09.092Z,10.18
2019-05-11T13:37:38.688Z,10.07
2019-05-11T13:40:08.549Z,10.23
2019-05-11T13:42:38.570Z,10.23
2019-05-11T13:45:08.657Z,10.19
2019-05-11T13:47:49.315Z,10.27
2019-05-11T13:50:07.936Z,10.28
2019-05-11T13:52:38.445Z,10.26
2019-05-11T13:55:08.364Z,10.03
2019-05-11T13:57:38.101Z,9.98
2019-05-11T14:00:09.397Z,10.00
2019-05-11T14:02:38.211Z,9.99
2019-05-11T14:05:10.078Z,9.94
2019-05-11T14:07:38.601Z,10.02
2019-05-11T14:10:08.310Z,9.97
2019-05-11T14:12:38.568Z,10.03
2019-05-11T14:15:08.659Z,10.16
2019-05-11T14:17:38.104Z,10.10
2019-05-11T14:20:09.114Z,10.00
2019-05-11T14:22:38.959Z,10.04
2019-05-11T14:25:08.224Z,9.99
2019-05-11T14:27:39.058Z,9.98
2019-05-11T14:30:08.757Z,9.89
2019-05-11T14:32:38.826Z,9.82
2019-05-11T14:35:12.128Z,9.93
2019-05-11T14:37:38.293Z,9.99
2019-05-11T14:40:08.715Z,9.93
2019-05-11T14:42:38.160Z,10.02
2019-05-11T14:45:08.709Z,10.14
2019-05-11T14:47:38.759Z,10.09
2019-05-11T14:50:08.864Z,10.01
2019-05-11T14:52:38.788Z,10.09
2019-05-11T14:55:08.363Z,10.22
2019-05-11T14:57:39.420Z,10.26
2019-05-11T15:00:08.929Z,10.13
2019-05-11T15:02:45.581Z,10.21
2019-05-11T15:05:18.159Z,10.24
2019-05-11T15:07:47.854Z,10.13
2019-05-11T15:10:18.759Z,10.17
2019-05-11T15:12:48.824Z,10.23
2019-05-11T15:15:18.915Z,10.32
2019-05-11T15:17:49.286Z,10.41
2019-05-11T15:20:18.012Z,10.37
2019-05-11T15:22:49.216Z,10.52
2019-05-11T15:25:19.252Z,10.45
2019-05-11T15:27:48.980Z,10.55
2019-05-11T15:30:18.391Z,10.46
2019-05-11T15:32:48.250Z,10.42
2019-05-11T15:35:18.528Z,10.43
2019-05-11T15:37:48.313Z,10.54
2019-05-11T15:40:18.946Z,10.55
2019-05-11T15:42:48.593Z,10.52
2019-05-11T15:45:19.397Z,10.48
2019-05-11T15:47:48.778Z,10.48
2019-05-11T15:50:19.066Z,10.48
2019-05-11T15:52:48.847Z,10.54
2019-05-11T15:55:19.687Z,10.51
2019-05-11T15:57:48.563Z,10.56
2019-05-11T16:00:18.109Z,10.45
2019-05-11T16:02:48.931Z,10.46
2019-05-11T16:05:18.191Z,10.46
2019-05-11T16:07:49.186Z,10.52
2019-05-11T16:10:18.826Z,10.49
2019-05-11T16:12:48.654Z,10.50
2019-05-11T16:15:19.733Z,10.53
2019-05-11T16:17:49.261Z,10.49
2019-05-11T16:20:18.251Z,10.59
2019-05-11T16:22:48.014Z,10.58
2019-05-11T16:25:19.697Z,10.58
2019-05-11T16:27:47.669Z,10.58
2019-05-11T16:30:20.837Z,10.58
2019-05-11T16:32:48.178Z,10.62
2019-05-11T16:35:18.174Z,10.65
2019-05-11T16:37:48.583Z,10.68
2019-05-11T16:40:20.151Z,10.71
2019-05-11T16:42:47.972Z,10.75
2019-05-11T16:45:19.032Z,10.77
2019-05-11T16:47:48.308Z,10.78
2019-05-11T16:50:18.092Z,10.80
2019-05-11T16:52:48.125Z,10.82
2019-05-11T16:55:18.437Z,10.86
2019-05-11T16:57:48.342Z,10.85
2019-05-11T17:00:18.721Z,10.85
2019-05-11T17:02:49.060Z,10.89
2019-05-11T17:05:26.020Z,10.84
2019-05-11T17:07:48.366Z,10.90
2019-05-11T17:10:17.943Z,10.85
2019-05-11T17:12:48.456Z,10.90
2019-05-11T17:15:18.473Z,10.90
2019-05-11T17:17:48.804Z,10.91
2019-05-11T17:20:19.157Z,10.89
2019-05-11T17:22:48.464Z,10.90
2019-05-11T17:25:19.107Z,10.92
2019-05-11T17:27:48.585Z,10.90
2019-05-11T17:30:19.274Z,10.90
2019-05-11T17:32:49.222Z,10.93
2019-05-11T17:35:18.463Z,10.93
2019-05-11T17:37:48.500Z,10.90
2019-05-11T17:40:20.714Z,10.90
2019-05-11T17:42:48.213Z,10.82
2019-05-11T17:45:18.882Z,10.85
2019-05-11T17:47:47.315Z,10.81
2019-05-11T17:50:15.910Z,10.83
2019-05-11T17:52:44.394Z,10.86
2019-05-11T17:55:13.033Z,10.88
2019-05-11T17:57:42.029Z,10.84
2019-05-11T18:00:11.179Z,10.84
2019-05-11T18:02:39.703Z,10.82
2019-05-11T18:05:09.086Z,10.88
2019-05-11T18:07:38.606Z,10.85
2019-05-11T18:10:08.367Z,10.78
2019-05-11T18:12:39.137Z,10.75
2019-05-11T18:15:09.418Z,10.71
2019-05-11T18:17:37.915Z,10.68
2019-05-11T18:20:17.306Z,10.76
2019-05-11T18:22:39.229Z,10.76
2019-05-11T18:25:10.069Z,10.76
2019-05-11T18:27:38.841Z,10.77
2019-05-11T18:30:08.772Z,10.77
2019-05-11T18:32:39.378Z,10.76
2019-05-11T18:35:08.476Z,10.75
2019-05-11T18:37:38.932Z,10.73
2019-05-11T18:40:08.617Z,10.70
2019-05-11T18:42:38.288Z,10.74
2019-05-11T18:45:08.343Z,10.66
2019-05-11T18:47:38.263Z,10.63
2019-05-11T18:50:07.238Z,10.64
2019-05-11T18:52:35.763Z,10.60
2019-05-11T18:55:08.183Z,10.63
2019-05-11T18:57:38.210Z,10.68
2019-05-11T19:00:09.353Z,10.64
2019-05-11T19:02:38.710Z,10.61
2019-05-11T19:05:07.380Z,10.61
2019-05-11T19:07:35.891Z,10.58
2019-05-11T19:10:08.271Z,10.59
2019-05-11T19:12:37.679Z,10.53
2019-05-11T19:15:08.349Z,10.49
2019-05-11T19:17:38.590Z,10.52
2019-05-11T19:20:08.418Z,10.51
2019-05-11T19:22:37.806Z,10.52
2019-05-11T19:25:09.053Z,10.50
2019-05-11T19:27:37.759Z,10.48
2019-05-11T19:30:08.135Z,10.50
2019-05-11T19:32:38.408Z,10.40
2019-05-11T19:35:08.914Z,10.38
2019-05-11T19:37:39.109Z,10.40
2019-05-11T19:40:09.068Z,10.35
2019-05-11T19:42:54.446Z,10.26
2019-05-11T19:45:23.288Z,10.24
2019-05-11T19:47:51.777Z,10.24
2019-05-11T19:50:20.210Z,10.21
2019-05-11T19:52:48.618Z,10.13
2019-05-11T19:55:17.988Z,10.14
2019-05-11T19:57:48.287Z,10.09
2019-05-11T20:00:18.434Z,10.04
2019-05-11T20:02:47.334Z,9.97
2019-05-11T20:05:18.159Z,10.02
2019-05-11T20:07:48.280Z,9.92
2019-05-11T20:10:18.561Z,9.77
2019-05-11T20:12:48.389Z,9.60
2019-05-11T20:15:18.991Z,9.58
2019-05-11T20:17:48.542Z,9.56
2019-05-11T20:20:18.431Z,9.54
2019-05-11T20:22:48.236Z,9.49
2019-05-11T20:25:18.454Z,9.37
2019-05-11T20:27:48.550Z,9.31
2019-05-11T20:30:18.400Z,9.20
2019-05-11T20:32:48.403Z,9.11
2019-05-11T20:35:17.952Z,9.08
2019-05-11T20:37:46.410Z,9.12
2019-05-11T20:40:15.063Z,9.12
2019-05-11T20:42:43.589Z,9.07
2019-05-11T20:45:12.254Z,9.03
2019-05-11T20:47:41.064Z,8.99
2019-05-11T20:50:09.642Z,8.91
2019-05-11T20:52:39.280Z,8.79
2019-05-11T20:55:09.117Z,8.68
2019-05-11T20:57:39.238Z,8.67
2019-05-11T21:00:10.339Z,8.55
2019-05-11T21:02:38.862Z,8.65
2019-05-11T21:05:09.062Z,8.63
2019-05-11T21:07:38.769Z,8.60
2019-05-11T21:10:08.843Z,8.66
2019-05-11T21:12:38.757Z,8.68
2019-05-11T21:15:10.982Z,8.71
2019-05-11T21:17:39.415Z,8.72
2019-05-11T21:20:11.849Z,8.65
2019-05-11T21:22:40.892Z,8.70
2019-05-11T21:25:10.410Z,8.71
2019-05-11T21:27:38.943Z,8.69
2019-05-11T21:30:11.570Z,8.69
2019-05-11T21:32:40.564Z,8.64
2019-05-11T21:35:09.409Z,8.65
2019-05-11T21:37:38.706Z,8.65
2019-05-11T21:40:09.668Z,8.65
2019-05-11T21:42:39.210Z,8.66
2019-05-11T21:45:10.046Z,8.62
2019-05-11T21:47:39.472Z,8.57
2019-05-11T21:50:09.966Z,8.57
2019-05-11T21:52:40.473Z,8.55
2019-05-11T21:55:09.931Z,8.56
2019-05-11T21:57:38.812Z,8.55
2019-05-11T22:00:10.307Z,8.47
2019-05-11T22:02:39.084Z,8.46
2019-05-11T22:05:09.973Z,8.47
2019-05-11T22:07:41.953Z,8.41
2019-05-11T22:10:10.201Z,8.46
2019-05-11T22:12:39.501Z,8.41
2019-05-11T22:15:09.901Z,8.38
2019-05-11T22:17:39.645Z,8.39
2019-05-11T22:20:09.168Z,8.36
2019-05-11T22:22:38.985Z,8.29
2019-05-11T22:25:09.064Z,8.25
2019-05-11T22:27:38.907Z,8.24
2019-05-11T22:30:08.670Z,8.20
2019-05-11T22:32:38.470Z,8.16
2019-05-11T22:35:09.077Z,8.16
2019-05-11T22:37:38.816Z,8.14
2019-05-11T22:40:09.448Z,8.07
2019-05-11T22:42:38.785Z,8.03
2019-05-11T22:45:10.495Z,8.05
2019-05-11T22:47:39.796Z,8.03
2019-05-11T22:50:09.185Z,8.02
2019-05-11T22:52:40.251Z,7.93
2019-05-11T22:55:11.851Z,7.96
2019-05-11T22:57:39.331Z,7.96
2019-05-11T23:00:11.025Z,7.90
2019-05-11T23:02:39.499Z,7.85
2019-05-11T23:05:08.969Z,7.82
2019-05-11T23:07:41.424Z,7.83
2019-05-11T23:10:10.061Z,7.77
2019-05-11T23:12:38.900Z,7.76
2019-05-11T23:15:14.528Z,7.67
2019-05-11T23:17:43.229Z,7.67
2019-05-11T23:20:12.679Z,7.64
2019-05-11T23:22:56.687Z,7.61
2019-05-11T23:25:18.754Z,7.54
2019-05-11T23:27:48.517Z,7.50
2019-05-11T23:30:19.667Z,7.51
2019-05-11T23:32:48.881Z,7.48
2019-05-11T23:35:18.728Z,7.49
2019-05-11T23:37:49.449Z,7.43
2019-05-11T23:40:19.634Z,7.40
2019-05-11T23:42:48.944Z,7.38
2019-05-11T23:45:19.338Z,7.33
2019-05-11T23:47:48.922Z,7.27
2019-05-11T23:50:19.450Z,7.11
2019-05-11T23:53:05.113Z,7.14
2019-05-11T23:55:19.672Z,7.09
2019-05-11T23:57:49.107Z,7.05
